Date,TemperatureHighF,TemperatureAvgF,TemperatureLowF,DewpointHighF,DewpointAvgF,DewpointLowF,HumidityHigh,HumidityAvg,HumidityLow,PressureMaxIn,PressureMinIn,WindSpeedMaxMPH,WindSpeedAvgMPH,GustSpeedMaxMPH,PrecipitationSumIn
2013-1-1,68.9,61.1,50.5,67.0,57.3,45.0,95,87,75,30.13,29.81,21,7,0,0.05
2013-1-2,50.3,44.1,41.4,45.0,39.8,38.0,92,85,73,30.27,30.10,15,7,0,0.25
2013-1-3,49.7,46.3,43.2,38.0,36.7,34.0,83,70,55,30.34,30.23,14,7,0,0.00
2013-1-4,49.8,48.1,44.7,43.0,39.7,37.0,93,73,67,30.38,30.28,17,9,0,0.01
2013-1-5,50.0,47.5,45.4,46.0,42.8,39.0,92,84,69,30.31,30.20,14,7,0,0.01
2013-1-6,60.8,51.0,44.2,47.0,45.1,42.0,93,81,57,30.31,30.21,11,4,0,0.00
2013-1-7,59.5,52.1,42.9,56.0,47.8,-99.9,96,88,78,30.26,29.94,13,-5,0,0.01
2013-1-8,67.9,63.1,56.6,67.0,62.1,56.0,98,96,93,29.94,29.71,19,5,0,0.06
2013-1-9,68.4,62.9,56.3,68.0,61.3,55.0,97,94,87,29.99,29.76,11,4,0,0.70
2013-1-10,67.0,57.7,52.4,56.0,52.1,49.0,97,83,58,30.06,29.97,11,3,0,0.70
2013-1-11,75.9,63.7,51.3,70.0,61.9,50.0,98,94,80,30.00,29.77,11,2,0,0.01
2013-1-12,76.0,71.0,68.5,72.0,69.6,68.0,98,95,84,29.80,29.60,18,6,0,0.01
2013-1-13,71.1,55.6,46.6,70.0,46.4,38.0,96,73,50,30.05,29.67,21,9,0,0.01
2013-1-14,50.7,45.8,42.7,44.0,40.6,37.0,95,82,68,30.14,30.01,13,7,0,0.00
2013-1-15,45.9,43.7,41.9,45.0,41.4,37.0,96,91,81,30.18,29.99,16,8,0,0.06
2013-1-16,57.2,45.4,36.8,37.0,28.7,20.0,81,55,23,30.33,30.17,18,7,0,0.01
2013-1-17,65.1,48.3,34.5,44.0,35.7,27.0,94,65,36,30.41,30.27,14,3,0,0.01
2013-1-18,65.5,52.4,41.3,50.0,45.9,39.0,95,80,52,30.45,30.27,9,2,0,0.00
2013-1-19,71.9,58.7,46.7,57.0,51.0,45.0,97,78,47,30.27,30.11,8,2,0,0.01
2013-1-20,72.2,59.7,48.0,60.0,53.9,47.0,98,82,58,30.20,30.05,10,2,0,0.00
2013-1-21,71.1,60.6,52.9,61.0,54.4,50.0,97,82,50,30.18,30.06,6,2,0,0.01
2013-1-22,71.9,60.7,50.6,60.0,54.9,49.0,97,83,57,30.24,30.12,10,2,0,0.01
2013-1-23,76.9,65.3,56.7,67.0,61.1,56.0,98,87,66,30.28,30.17,12,2,0,0.01
2013-1-24,78.9,66.9,59.4,67.0,62.5,58.0,98,87,63,30.24,30.09,13,3,0,0.01
2013-1-25,78.4,67.7,59.3,67.0,63.6,59.0,98,87,67,30.12,29.99,14,4,0,0.01
2013-1-26,77.2,68.1,62.7,66.0,63.2,62.0,97,85,63,30.09,29.99,13,4,0,0.01
2013-1-27,76.6,69.4,63.6,71.0,67.0,61.0,97,92,80,30.04,29.91,18,5,0,0.01
2013-1-28,77.6,71.1,68.4,71.0,68.5,67.0,97,92,80,30.02,29.85,16,8,0,0.00
2013-1-29,82.1,72.6,67.9,71.0,67.8,45.0,97,86,40,29.86,29.54,18,8,0,0.00
2013-1-30,69.7,62.0,54.6,44.0,26.4,12.0,42,27,12,30.19,29.70,22,11,0,0.00
2013-1-31,69.7,54.5,38.0,49.0,35.2,23.0,85,52,21,30.28,30.17,10,2,0,0.00